Time;durP1;ratioP1;P1;durP2;ratioP2;P2;SDS_P1;SDS_P2;PMS_P1;PMS_P2;Temp;Humidity;BMP_temperature;BMP_pressure;BME280_temperature;BME280_humidity;BME280_pressure;Samples;Min_cycle;Max_cycle;Signal;HPM_P1;HPM_P2
2021/05/21 00:00:26;;;;;;;1.15;1.05;;;12.60;42.70;;;;;;5039562;28;20314;-80
2021/05/21 00:02:52;;;;;;;1.10;1.10;;;12.60;43.20;;;;;;5035785;28;20219;-80
2021/05/21 00:05:18;;;;;;;1.40;1.30;;;12.60;43.30;;;;;;5034087;28;20861;-81
2021/05/21 00:07:45;;;;;;;1.45;1.15;;;12.60;43.40;;;;;;5038177;28;20262;-79
2021/05/21 00:10:12;;;;;;;1.55;1.30;;;12.60;43.90;;;;;;5047902;28;20312;-82
2021/05/21 00:12:39;;;;;;;1.13;1.10;;;12.60;44.00;;;;;;5051944;28;20822;-80
2021/05/21 00:15:07;;;;;;;2.22;1.40;;;13.40;44.50;;;;;;5050617;28;20218;-81
2021/05/21 00:17:34;;;;;;;2.95;1.05;;;12.50;43.70;;;;;;5050820;28;20207;-83
2021/05/21 00:20:00;;;;;;;1.63;1.15;;;12.50;43.70;;;;;;5038215;28;20227;-81
2021/05/21 00:22:27;;;;;;;2.78;1.50;;;12.60;43.90;;;;;;5038116;28;20238;-81
2021/05/21 00:24:53;;;;;;;1.13;1.02;;;12.50;43.90;;;;;;5036817;28;20638;-80
2021/05/21 00:27:20;;;;;;;1.45;1.30;;;12.50;44.30;;;;;;5036451;28;20614;-83
2021/05/21 00:29:47;;;;;;;1.20;1.20;;;12.40;45.10;;;;;;5034481;28;20235;-80
2021/05/21 00:32:13;;;;;;;2.00;1.30;;;12.30;44.90;;;;;;5034269;28;20203;-82
2021/05/21 00:34:40;;;;;;;4.80;1.35;;;12.30;45.50;;;;;;5036522;28;20293;-79
2021/05/21 00:37:06;;;;;;;1.20;1.10;;;12.30;45.60;;;;;;5036533;28;20738;-80
2021/05/21 00:39:32;;;;;;;1.98;1.48;;;12.30;45.70;;;;;;5037248;28;20643;-83
2021/05/21 00:41:59;;;;;;;1.40;1.30;;;12.20;46.10;;;;;;5036466;28;20676;-82
2021/05/21 00:44:26;;;;;;;1.83;1.73;;;12.20;46.40;;;;;;5037480;28;20373;-80
2021/05/21 00:46:52;;;;;;;1.70;1.60;;;12.20;46.60;;;;;;5035909;28;20246;-83
2021/05/21 00:49:19;;;;;;;1.70;1.30;;;12.10;46.80;;;;;;5036478;28;20290;-81
2021/05/21 00:51:46;;;;;;;1.35;1.25;;;12.00;47.20;;;;;;5037225;28;20300;-80
2021/05/21 00:54:14;;;;;;;1.50;1.40;;;12.10;47.80;;;;;;5044040;28;20218;-85
2021/05/21 00:56:40;;;;;;;2.78;1.00;;;12.10;47.90;;;;;;5040381;28;20733;-80
2021/05/21 00:59:07;;;;;;;3.15;1.75;;;12.00;48.00;;;;;;5040764;28;20221;-83
2021/05/21 01:01:35;;;;;;;1.70;1.50;;;11.90;48.00;;;;;;5043707;28;20218;-81
2021/05/21 01:04:01;;;;;;;1.70;1.27;;;11.90;48.60;;;;;;5041936;28;20317;-82
2021/05/21 01:06:27;;;;;;;2.30;1.65;;;11.90;48.90;;;;;;5040600;28;20210;-81
2021/05/21 01:08:55;;;;;;;1.77;1.67;;;11.80;49.00;;;;;;5042344;28;20298;-81
2021/05/21 01:11:22;;;;;;;1.40;1.30;;;11.80;49.50;;;;;;5041649;28;20219;-81
2021/05/21 01:13:48;;;;;;;1.90;1.50;;;11.80;49.70;;;;;;5042377;28;20249;-81
2021/05/21 01:16:14;;;;;;;3.88;1.80;;;11.80;50.90;;;;;;5041461;28;20207;-82
2021/05/21 01:18:42;;;;;;;1.30;1.20;;;11.70;50.80;;;;;;5047652;28;20247;-82
2021/05/21 01:21:10;;;;;;;1.60;1.38;;;11.70;50.80;;;;;;5044755;28;20233;-81
2021/05/21 01:23:36;;;;;;;3.20;1.60;;;11.70;50.80;;;;;;5048316;28;20254;-83
2021/05/21 01:26:04;;;;;;;1.98;1.45;;;11.70;50.80;;;;;;5055192;28;20215;-81
2021/05/21 01:28:30;;;;;;;1.45;1.35;;;11.60;51.00;;;;;;5053963;28;20214;-81
2021/05/21 01:30:57;;;;;;;2.55;1.60;;;11.60;51.20;;;;;;5049056;28;20667;-84
2021/05/21 01:33:23;;;;;;;1.65;1.52;;;11.60;51.70;;;;;;5047220;28;20205;-79
2021/05/21 01:35:51;;;;;;;5.38;2.22;;;11.60;52.10;;;;;;5039768;28;20683;-79
2021/05/21 01:38:18;;;;;;;1.60;1.50;;;11.60;52.90;;;;;;5037546;28;20207;-80
2021/05/21 01:40:46;;;;;;;3.85;1.60;;;11.60;52.90;;;;;;5039103;28;20230;-84
2021/05/21 01:43:12;;;;;;;1.80;1.70;;;11.60;53.40;;;;;;5037355;28;20266;-78
2021/05/21 01:45:39;;;;;;;2.97;1.40;;;11.60;53.80;;;;;;5037684;28;20212;-81
2021/05/21 01:48:07;;;;;;;1.42;1.33;;;11.60;54.20;;;;;;5041294;28;20291;-81
2021/05/21 01:50:34;;;;;;;1.38;1.30;;;11.50;54.90;;;;;;5039217;28;20273;-80
2021/05/21 01:53:00;;;;;;;2.50;1.80;;;11.50;55.40;;;;;;5052748;28;20207;-81
2021/05/21 01:55:27;;;;;;;2.00;1.55;;;11.50;55.40;;;;;;5054264;28;20231;-81
2021/05/21 01:57:54;;;;;;;1.83;1.30;;;11.40;55.30;;;;;;5043375;28;20294;-80
2021/05/21 02:00:20;;;;;;;1.85;1.65;;;11.50;55.40;;;;;;5039787;28;20258;-81
2021/05/21 02:02:47;;;;;;;2.00;1.80;;;11.40;55.90;;;;;;5038437;28;20230;-81
2021/05/21 02:05:13;;;;;;;2.67;1.80;;;11.60;55.80;;;;;;5037140;28;20679;-80
2021/05/21 02:07:40;;;;;;;2.25;1.63;;;11.40;56.00;;;;;;5037771;28;20203;-79
2021/05/21 02:10:08;;;;;;;3.97;1.95;;;11.40;56.60;;;;;;5045238;28;20250;-80
2021/05/21 02:12:37;;;;;;;1.55;1.45;;;11.30;56.80;;;;;;5052586;28;20206;-78
2021/05/21 02:15:06;;;;;;;1.70;1.60;;;11.30;57.10;;;;;;5051100;28;20214;-81
2021/05/21 02:17:32;;;;;;;1.65;1.55;;;11.10;57.70;;;;;;5047846;28;20254;-78
2021/05/21 02:20:00;;;;;;;1.55;1.40;;;11.20;59.20;;;;;;5054182;28;20269;-80
2021/05/21 02:22:27;;;;;;;3.00;1.52;;;12.40;60.70;;;;;;5053851;28;20361;-78
2021/05/21 02:24:55;;;;;;;1.63;1.52;;;11.00;59.60;;;;;;5053804;28;20207;-82
2021/05/21 02:27:22;;;;;;;2.25;1.55;;;11.60;60.10;;;;;;5048046;28;20207;-80
2021/05/21 02:29:49;;;;;;;2.28;1.25;;;10.90;59.40;;;;;;5052144;28;20258;-78
2021/05/21 02:32:15;;;;;;;1.90;1.80;;;10.50;59.00;;;;;;5058372;28;20203;-80
2021/05/21 02:34:42;;;;;;;3.38;1.70;;;10.80;59.40;;;;;;5056923;28;20234;-77
2021/05/21 02:37:09;;;;;;;1.60;1.38;;;13.00;61.30;;;;;;5052929;28;20195;-78
2021/05/21 02:39:35;;;;;;;1.70;1.60;;;10.70;59.30;;;;;;5054677;28;20233;-78
2021/05/21 02:42:03;;;;;;;2.10;1.80;;;10.70;59.70;;;;;;5057944;28;20207;-79
2021/05/21 02:44:29;;;;;;;1.55;1.45;;;10.70;60.50;;;;;;5056671;28;20211;-78
2021/05/21 02:46:56;;;;;;;1.55;1.45;;;11.30;61.40;;;;;;5046944;28;20191;-80
2021/05/21 02:49:23;;;;;;;1.58;1.48;;;11.00;61.40;;;;;;5039242;28;20200;-80
2021/05/21 02:51:50;;;;;;;1.83;1.73;;;10.70;61.20;;;;;;5037000;28;20294;-80
2021/05/21 02:54:17;;;;;;;3.45;1.88;;;11.50;62.50;;;;;;5036141;28;20250;-80
2021/05/21 02:56:44;;;;;;;1.95;1.75;;;10.60;62.00;;;;;;5036408;28;20239;-82
2021/05/21 02:59:10;;;;;;;3.22;1.85;;;12.00;64.60;;;;;;5037144;28;20516;-80
2021/05/21 03:01:37;;;;;;;2.40;2.10;;;11.00;64.00;;;;;;5037537;28;20207;-80
2021/05/21 03:04:05;;;;;;;2.72;1.67;;;11.10;64.10;;;;;;5038082;28;20250;-78
2021/05/21 03:06:31;;;;;;;2.53;1.90;;;10.40;64.30;;;;;;5037744;28;20318;-80
2021/05/21 03:08:58;;;;;;;3.10;1.80;;;10.40;64.70;;;;;;5038597;28;20203;-79
2021/05/21 03:11:24;;;;;;;1.40;1.30;;;10.40;66.00;;;;;;5045080;28;20234;-79
2021/05/21 03:13:51;;;;;;;2.00;1.90;;;10.40;66.40;;;;;;5046251;28;20266;-78
2021/05/21 03:16:17;;;;;;;1.70;1.60;;;10.30;67.30;;;;;;5038018;28;20298;-80
2021/05/21 03:18:44;;;;;;;2.60;1.98;;;10.30;67.80;;;;;;5040585;28;20214;-78
2021/05/21 03:21:11;;;;;;;2.85;1.85;;;10.20;67.70;;;;;;5041353;28;20257;-78
2021/05/21 03:23:37;;;;;;;2.13;1.98;;;10.30;67.80;;;;;;5038710;28;20284;-80
2021/05/21 03:26:04;;;;;;;1.70;1.60;;;11.30;68.80;;;;;;5038447;28;20207;-79
2021/05/21 03:28:30;;;;;;;2.08;1.90;;;10.20;68.50;;;;;;5035228;28;20230;-81
2021/05/21 03:30:57;;;;;;;1.85;1.75;;;10.10;69.70;;;;;;5037874;28;20243;-80
2021/05/21 03:33:23;;;;;;;2.30;2.10;;;10.10;70.10;;;;;;5039327;28;20230;-80
2021/05/21 03:35:50;;;;;;;2.92;1.80;;;10.10;70.10;;;;;;5040274;28;20218;-80
2021/05/21 03:38:17;;;;;;;3.08;2.00;;;10.20;69.40;;;;;;5052674;28;20218;-78
2021/05/21 03:40:43;;;;;;;3.78;2.05;;;12.50;71.50;;;;;;5057483;28;20235;-78
2021/05/21 03:43:10;;;;;;;1.73;1.63;;;7.90;68.10;;;;;;5057308;28;20325;-77
2021/05/21 03:45:37;;;;;;;2.28;1.77;;;10.20;68.80;;;;;;5057202;28;20203;-78
2021/05/21 03:48:04;;;;;;;2.55;1.90;;;10.20;69.30;;;;;;5057382;28;20187;-77
2021/05/21 03:50:31;;;;;;;2.45;1.55;;;9.10;69.40;;;;;;5057439;28;20203;-77
2021/05/21 03:52:57;;;;;;;2.60;2.10;;;10.50;68.80;;;;;;5056740;28;20197;-78
2021/05/21 03:55:25;;;;;;;2.28;1.77;;;12.00;69.40;;;;;;5056859;28;20195;-77
2021/05/21 03:57:51;;;;;;;1.73;1.63;;;10.70;68.10;;;;;;5055451;28;20202;-78
2021/05/21 04:00:20;;;;;;;3.85;1.92;;;10.80;68.20;;;;;;5057115;28;20250;-76
2021/05/21 04:02:49;;;;;;;3.25;2.20;;;10.80;67.30;;;;;;5056583;28;20214;-78
2021/05/21 04:05:16;;;;;;;1.95;1.85;;;10.80;67.10;;;;;;5056915;28;20214;-79
2021/05/21 04:07:43;;;;;;;4.75;2.25;;;10.40;66.70;;;;;;5047833;28;20310;-79
2021/05/21 04:10:11;;;;;;;2.30;2.10;;;11.50;67.70;;;;;;5046428;28;20223;-79
2021/05/21 04:12:39;;;;;;;2.00;1.88;;;10.90;67.30;;;;;;5049269;28;20211;-80
2021/05/21 04:15:07;;;;;;;3.17;2.00;;;10.90;68.10;;;;;;5049612;28;20207;-82
2021/05/21 04:17:33;;;;;;;2.25;2.10;;;11.00;68.50;;;;;;5049559;28;20265;-82
2021/05/21 04:20:00;;;;;;;2.13;1.73;;;11.10;67.70;;;;;;5046543;28;20228;-80
2021/05/21 04:22:26;;;;;;;2.83;2.40;;;11.20;67.60;;;;;;5046918;28;20243;-80
2021/05/21 04:24:53;;;;;;;2.55;2.13;;;11.30;66.30;;;;;;5046052;28;20262;-82
2021/05/21 04:27:19;;;;;;;3.15;2.50;;;11.30;64.30;;;;;;5045829;28;20203;-83
2021/05/21 04:29:46;;;;;;;4.05;2.40;;;11.30;64.30;;;;;;5040529;28;20235;-79
2021/05/21 04:32:13;;;;;;;5.65;2.70;;;11.30;64.20;;;;;;5042904;28;20555;-83
2021/05/21 04:34:41;;;;;;;2.03;1.90;;;11.30;64.30;;;;;;5043990;28;20207;-82
2021/05/21 04:37:08;;;;;;;3.75;2.10;;;11.40;64.00;;;;;;5045419;28;20207;-81
2021/05/21 04:39:34;;;;;;;5.93;2.15;;;11.50;63.70;;;;;;5036663;28;20656;-79
2021/05/21 04:42:00;;;;;;;6.43;2.50;;;11.60;63.20;;;;;;5038231;28;20583;-78
2021/05/21 04:44:27;;;;;;;3.17;2.67;;;11.70;62.80;;;;;;5036013;28;20222;-81
2021/05/21 04:46:54;;;;;;;2.10;1.90;;;11.90;62.50;;;;;;5035412;28;20659;-83
2021/05/21 04:49:39;;;;;;;2.97;2.28;;;11.90;62.10;;;;;;5038403;28;20202;-79
2021/05/21 04:52:07;;;;;;;3.60;2.42;;;12.00;61.70;;;;;;5041715;28;20211;-82
2021/05/21 04:54:35;;;;;;;2.55;1.88;;;12.10;60.80;;;;;;5042031;28;20230;-82
2021/05/21 04:57:01;;;;;;;4.00;2.00;;;12.20;60.70;;;;;;5039787;28;20269;-78
2021/05/21 04:59:27;;;;;;;2.03;1.90;;;12.30;60.70;;;;;;5047572;28;20326;-81
2021/05/21 05:01:55;;;;;;;2.45;2.25;;;12.50;58.30;;;;;;5048919;28;20267;-82
2021/05/21 05:04:22;;;;;;;2.85;2.00;;;12.60;57.60;;;;;;5049487;28;20231;-82
2021/05/21 05:06:49;;;;;;;1.90;1.70;;;12.80;56.60;;;;;;5044584;28;20211;-82
2021/05/21 05:09:16;;;;;;;1.73;1.63;;;12.90;55.80;;;;;;5042262;28;20214;-80
2021/05/21 05:11:43;;;;;;;2.05;1.85;;;13.10;54.70;;;;;;5039044;28;20211;-81
2021/05/21 05:14:11;;;;;;;1.80;1.70;;;13.20;54.30;;;;;;5036763;28;20207;-79
2021/05/21 05:16:39;;;;;;;2.15;1.75;;;13.30;54.40;;;;;;5038832;28;20600;-81
2021/05/21 05:19:07;;;;;;;3.58;1.65;;;13.50;54.20;;;;;;5037066;28;20325;-79
2021/05/21 05:21:37;;;;;;;1.75;1.50;;;13.70;54.30;;;;;;5035308;28;20242;-79
2021/05/21 05:24:04;;;;;;;2.70;1.60;;;13.90;53.00;;;;;;5033493;28;20306;-79
2021/05/21 05:26:32;;;;;;;3.40;2.20;;;14.00;53.00;;;;;;5032237;28;20199;-80
2021/05/21 05:28:59;;;;;;;1.95;1.65;;;14.30;52.50;;;;;;5033232;28;20226;-79
2021/05/21 05:31:26;;;;;;;3.23;1.90;;;14.50;50.00;;;;;;5047109;28;20239;-81
2021/05/21 05:33:52;;;;;;;1.97;1.40;;;14.80;48.40;;;;;;5051066;28;20461;-80
2021/05/21 05:36:20;;;;;;;2.05;1.60;;;15.20;47.50;;;;;;5048876;28;20453;-78
2021/05/21 05:38:46;;;;;;;3.23;1.80;;;15.60;46.70;;;;;;5045723;28;20210;-80
2021/05/21 05:41:12;;;;;;;2.13;1.83;;;15.80;44.90;;;;;;5042031;28;20508;-81
2021/05/21 05:43:39;;;;;;;2.50;1.87;;;16.00;43.60;;;;;;5041879;28;20555;-81
2021/05/21 05:46:09;;;;;;;1.50;1.40;;;16.10;42.20;;;;;;5042523;28;20988;-81
2021/05/21 05:48:35;;;;;;;2.70;1.43;;;16.20;40.60;;;;;;5047106;28;20404;-79
2021/05/21 05:51:02;;;;;;;2.83;1.60;;;16.30;39.20;;;;;;5055795;28;20480;-79
2021/05/21 05:53:33;;;;;;;4.97;1.67;;;16.40;38.90;;;;;;5052804;28;20465;-79
2021/05/21 05:56:00;;;;;;;2.20;1.50;;;16.50;37.80;;;;;;5041978;28;20435;-80
2021/05/21 05:58:26;;;;;;;3.60;1.73;;;16.60;38.50;;;;;;5041248;28;20464;-80
2021/05/21 06:00:53;;;;;;;4.33;2.00;;;16.80;37.70;;;;;;5041055;28;21013;-79
2021/05/21 06:03:19;;;;;;;3.13;1.90;;;17.10;36.40;;;;;;5042114;28;20512;-81
2021/05/21 06:05:46;;;;;;;3.93;1.73;;;17.20;36.20;;;;;;5045964;28;20417;-80
2021/05/21 06:08:12;;;;;;;4.50;1.83;;;17.30;36.30;;;;;;5044626;28;20452;-81
2021/05/21 06:10:40;;;;;;;1.93;1.60;;;17.30;35.60;;;;;;5045770;28;20445;-79
2021/05/21 06:13:08;;;;;;;1.73;1.33;;;17.20;36.20;;;;;;5047423;28;20438;-80
2021/05/21 06:15:36;;;;;;;2.07;1.53;;;17.00;35.40;;;;;;5047366;28;20454;-80
2021/05/21 06:18:03;;;;;;;4.20;1.37;;;16.70;35.70;;;;;;5045761;28;20396;-79
2021/05/21 06:20:31;;;;;;;3.60;1.40;;;16.50;35.50;;;;;;5047460;28;20486;-79
2021/05/21 06:22:58;;;;;;;2.50;1.30;;;16.40;35.40;;;;;;5049857;28;20450;-81
2021/05/21 06:25:38;;;;;;;2.17;1.00;;;16.30;35.30;;;;;;5046421;28;20457;-82
2021/05/21 06:28:06;;;;;;;0.80;0.77;;;16.40;35.40;;;;;;5053106;28;20492;-82
2021/05/21 06:30:32;;;;;;;1.70;0.90;;;16.50;33.80;;;;;;5054086;28;20482;-81
2021/05/21 06:32:59;;;;;;;3.43;1.20;;;16.50;34.50;;;;;;5053799;28;20435;-81
2021/05/21 06:35:27;;;;;;;4.23;0.97;;;16.50;33.40;;;;;;5051796;28;20453;-80
2021/05/21 06:37:53;;;;;;;2.00;1.00;;;16.60;33.30;;;;;;5053179;28;20457;-80
2021/05/21 06:40:20;;;;;;;3.33;1.00;;;16.70;32.00;;;;;;5053037;28;20458;-83
2021/05/21 06:42:46;;;;;;;1.33;1.07;;;16.60;32.30;;;;;;5051903;28;20453;-84
2021/05/21 06:45:15;;;;;;;3.43;1.03;;;16.60;32.20;;;;;;5044146;28;20509;-81
2021/05/21 06:47:41;;;;;;;1.00;0.80;;;16.70;31.70;;;;;;5040021;28;20473;-81
2021/05/21 06:50:09;;;;;;;2.00;0.93;;;16.70;31.60;;;;;;5039246;28;20506;-82
2021/05/21 06:52:36;;;;;;;1.20;1.10;;;16.70;31.20;;;;;;5039657;28;20880;-80
2021/05/21 06:55:02;;;;;;;2.20;1.13;;;16.80;30.70;;;;;;5043591;28;20437;-83
2021/05/21 06:57:29;;;;;;;1.17;0.90;;;17.00;30.20;;;;;;5048397;28;20460;-82
2021/05/21 06:59:57;;;;;;;0.87;0.87;;;17.00;30.40;;;;;;5051255;28;20473;-82
2021/05/21 07:02:26;;;;;;;0.87;0.77;;;17.10;30.00;;;;;;5052591;28;20489;-82
2021/05/21 07:04:52;;;;;;;3.03;0.90;;;17.20;29.90;;;;;;5051046;28;20620;-83
2021/05/21 07:07:19;;;;;;;2.97;0.83;;;17.20;30.00;;;;;;5051710;28;20449;-82
2021/05/21 07:09:45;;;;;;;1.77;0.70;;;17.20;29.70;;;;;;5048396;28;20439;-81
2021/05/21 07:12:12;;;;;;;3.23;1.00;;;17.30;29.50;;;;;;5045124;28;20443;-80
2021/05/21 07:14:38;;;;;;;0.90;0.70;;;17.40;29.70;;;;;;5038442;28;20421;-80
2021/05/21 07:17:04;;;;;;;0.90;0.67;;;17.40;29.50;;;;;;5038727;28;20492;-82
2021/05/21 07:19:32;;;;;;;1.80;0.73;;;17.40;30.30;;;;;;5037913;28;20464;-81
2021/05/21 07:21:58;;;;;;;0.93;0.83;;;17.20;29.60;;;;;;5038545;28;20959;-80
2021/05/21 07:24:25;;;;;;;0.83;0.73;;;17.10;29.90;;;;;;5046978;28;20518;-85
2021/05/21 07:26:51;;;;;;;2.07;0.90;;;17.00;30.40;;;;;;5042981;28;20482;-83
2021/05/21 07:29:17;;;;;;;1.37;1.03;;;16.90;30.20;;;;;;5039813;28;20441;-81
2021/05/21 07:31:44;;;;;;;2.90;1.00;;;17.00;30.20;;;;;;5039435;28;20482;-81
2021/05/21 07:34:10;;;;;;;2.77;0.97;;;17.00;30.20;;;;;;5043297;28;20453;-81
2021/05/21 07:36:37;;;;;;;2.33;1.03;;;17.00;30.00;;;;;;5053206;28;20746;-84
2021/05/21 07:39:06;;;;;;;2.80;1.20;;;17.00;30.00;;;;;;5055197;28;20450;-84
2021/05/21 07:41:32;;;;;;;1.50;1.00;;;17.00;30.10;;;;;;5052179;28;20442;-79
2021/05/21 07:43:59;;;;;;;4.60;1.10;;;17.00;30.00;;;;;;5048183;28;20482;-80
2021/05/21 07:46:26;;;;;;;3.67;1.00;;;17.10;30.70;;;;;;5047102;28;20477;-83
2021/05/21 07:48:53;;;;;;;1.77;0.80;;;17.30;29.60;;;;;;5050799;28;20446;-82
2021/05/21 07:51:21;;;;;;;2.30;0.90;;;17.30;29.60;;;;;;5050764;28;20436;-82
2021/05/21 07:53:49;;;;;;;2.27;0.90;;;17.50;29.10;;;;;;5050129;28;20460;-82
2021/05/21 07:56:15;;;;;;;4.40;1.37;;;17.50;29.80;;;;;;5049486;28;20505;-84
2021/05/21 07:58:41;;;;;;;2.70;1.30;;;17.60;29.00;;;;;;5051295;28;20625;-83
2021/05/21 08:01:08;;;;;;;2.50;0.80;;;17.60;29.00;;;;;;5055024;28;20501;-82
2021/05/21 08:03:35;;;;;;;2.43;1.13;;;17.70;29.10;;;;;;5055368;28;20470;-83
2021/05/21 08:06:02;;;;;;;5.20;0.80;;;17.70;28.80;;;;;;5055942;28;20421;-83
2021/05/21 08:08:32;;;;;;;4.73;1.50;;;17.70;29.40;;;;;;5055659;28;20445;-84
2021/05/21 08:11:02;;;;;;;2.30;0.90;;;17.70;29.60;;;;;;5056343;28;20564;-83
2021/05/21 08:13:28;;;;;;;1.07;0.97;;;17.80;29.60;;;;;;5044638;28;20520;-81
2021/05/21 08:15:55;;;;;;;2.03;1.10;;;17.70;29.90;;;;;;5039243;28;20433;-82
2021/05/21 08:18:22;;;;;;;4.70;1.20;;;17.70;30.50;;;;;;5043120;28;20447;-84
2021/05/21 08:20:49;;;;;;;1.10;0.87;;;17.40;31.60;;;;;;5044144;28;20916;-81
2021/05/21 08:23:17;;;;;;;2.30;1.10;;;17.20;32.70;;;;;;5037561;28;20513;-80
2021/05/21 08:25:43;;;;;;;1.30;1.10;;;17.10;33.20;;;;;;5037639;28;20424;-80
2021/05/21 08:28:11;;;;;;;1.50;0.90;;;17.10;32.90;;;;;;5039697;28;20529;-84
2021/05/21 08:30:38;;;;;;;2.23;1.30;;;17.00;33.10;;;;;;5039744;28;20558;-81
2021/05/21 08:33:06;;;;;;;1.37;1.20;;;17.10;32.60;;;;;;5046610;28;20430;-81
2021/05/21 08:35:33;;;;;;;2.50;1.10;;;17.10;32.80;;;;;;5044048;28;20613;-80
2021/05/21 08:38:02;;;;;;;2.73;1.13;;;17.10;33.20;;;;;;5038218;28;20471;-81
2021/05/21 08:40:35;;;;;;;1.93;1.10;;;17.10;33.30;;;;;;5038883;28;20456;-81
2021/05/21 08:43:06;;;;;;;1.57;1.20;;;17.30;32.70;;;;;;5040122;28;20419;-82
2021/05/21 08:45:33;;;;;;;1.50;0.87;;;17.20;32.20;;;;;;5040538;28;20393;-81
2021/05/21 08:48:01;;;;;;;1.30;1.00;;;17.40;32.40;;;;;;5049005;28;20412;-84
2021/05/21 08:50:27;;;;;;;3.57;1.10;;;17.20;32.50;;;;;;5048470;28;20485;-81
2021/05/21 08:52:54;;;;;;;2.17;1.10;;;17.10;32.60;;;;;;5042941;28;20943;-82
2021/05/21 08:55:20;;;;;;;3.00;1.10;;;17.20;32.90;;;;;;5038501;28;20551;-81
2021/05/21 08:57:47;;;;;;;2.83;1.23;;;17.10;33.00;;;;;;5038096;28;20488;-81
2021/05/21 09:00:14;;;;;;;1.53;1.00;;;17.00;32.80;;;;;;5040164;28;20504;-81
2021/05/21 09:02:42;;;;;;;1.63;1.10;;;17.10;33.00;;;;;;5041130;28;20463;-80
2021/05/21 09:05:10;;;;;;;5.90;1.20;;;17.10;32.80;;;;;;5038348;28;20453;-81
2021/05/21 09:07:38;;;;;;;2.00;1.30;;;17.30;33.10;;;;;;5039419;28;20532;-80
2021/05/21 09:10:09;;;;;;;2.00;1.20;;;17.50;32.60;;;;;;5039859;28;20952;-80
2021/05/21 09:12:41;;;;;;;7.60;1.40;;;17.50;32.30;;;;;;5049129;28;20461;-82
2021/05/21 09:15:13;;;;;;;0.93;0.93;;;17.40;32.40;;;;;;5055852;28;20425;-81
2021/05/21 09:17:56;;;;;;;1.63;1.37;;;17.50;32.40;;;;;;5055715;28;20424;-82
2021/05/21 09:20:25;;;;;;;2.63;1.43;;;17.80;31.90;;;;;;5051045;28;20488;-81
2021/05/21 09:23:03;;;;;;;1.27;1.10;;;18.00;31.80;;;;;;5053513;28;20426;-83
2021/05/21 09:25:41;;;;;;;1.90;1.27;;;17.80;32.10;;;;;;5050485;28;20441;-81
2021/05/21 09:28:32;;;;;;;1.03;1.03;;;17.80;32.30;;;;;;5045379;28;20489;-84
2021/05/21 09:31:07;;;;;;;1.83;1.37;;;17.50;32.20;;;;;;5046938;28;20482;-83
2021/05/21 09:33:34;;;;;;;1.10;1.00;;;17.40;32.60;;;;;;5055797;28;20439;-81
2021/05/21 09:36:01;;;;;;;3.63;1.13;;;17.40;32.60;;;;;;5056164;28;20430;-83
2021/05/21 09:38:27;;;;;;;2.13;1.70;;;17.40;33.00;;;;;;5055360;28;20428;-80
2021/05/21 09:40:54;;;;;;;2.07;1.47;;;17.40;32.60;;;;;;5055716;28;20436;-85
2021/05/21 09:43:22;;;;;;;2.20;1.30;;;17.60;32.20;;;;;;5058630;28;20458;-82
2021/05/21 09:45:50;;;;;;;2.10;1.50;;;17.40;32.60;;;;;;5058506;28;20446;-85
2021/05/21 09:48:18;;;;;;;3.73;1.33;;;17.40;32.80;;;;;;5058480;28;20477;-83
2021/05/21 09:50:47;;;;;;;2.23;1.20;;;17.30;32.80;;;;;;5054565;28;20444;-81
2021/05/21 09:53:16;;;;;;;2.50;1.20;;;17.20;32.80;;;;;;5048103;28;20436;-82
2021/05/21 09:55:44;;;;;;;2.30;1.17;;;17.20;32.80;;;;;;5047413;28;20480;-81
2021/05/21 09:58:24;;;;;;;1.93;1.10;;;17.10;32.80;;;;;;5047725;28;20521;-82
2021/05/21 10:01:12;;;;;;;2.67;1.30;;;17.20;33.00;;;;;;5046027;28;20454;-81
2021/05/21 10:03:40;;;;;;;11.17;1.90;;;17.40;32.30;;;;;;5047653;28;20491;-82
2021/05/21 10:06:06;;;;;;;2.30;1.10;;;17.40;32.80;;;;;;5051234;28;20458;-81
2021/05/21 10:08:34;;;;;;;1.90;1.30;;;17.60;32.30;;;;;;5051960;28;20428;-82
2021/05/21 10:11:00;;;;;;;1.63;1.50;;;17.90;32.10;;;;;;5052955;28;20479;-81
2021/05/21 10:13:27;;;;;;;4.17;1.33;;;18.00;31.60;;;;;;5055350;28;20429;-83
2021/05/21 10:15:55;;;;;;;2.87;1.37;;;17.90;31.70;;;;;;5054859;28;20401;-80
2021/05/21 10:18:23;;;;;;;2.60;1.33;;;17.70;32.60;;;;;;5052420;28;20434;-82
2021/05/21 10:20:51;;;;;;;5.17;1.50;;;17.50;32.60;;;;;;5049231;28;20445;-82
2021/05/21 10:23:19;;;;;;;4.10;1.50;;;17.60;33.00;;;;;;5046482;28;20421;-79
2021/05/21 10:25:52;;;;;;;2.63;1.20;;;17.90;32.70;;;;;;5047556;28;20435;-82
2021/05/21 10:28:19;;;;;;;2.70;1.53;;;18.20;32.00;;;;;;5052893;28;20454;-81
2021/05/21 10:30:45;;;;;;;2.10;1.37;;;18.10;32.20;;;;;;5055775;28;20449;-81
2021/05/21 10:33:16;;;;;;;3.53;1.60;;;17.90;32.70;;;;;;5054724;28;20420;-81
2021/05/21 10:35:44;;;;;;;3.47;1.37;;;17.80;33.00;;;;;;5055251;28;20574;-81
2021/05/21 10:38:21;;;;;;;1.43;1.33;;;17.90;32.90;;;;;;5054590;28;20473;-81
2021/05/21 10:41:12;;;;;;;1.20;1.10;;;17.80;33.80;;;;;;5054528;28;20425;-82
2021/05/21 10:43:47;;;;;;;58.63;4.87;;;17.60;34.10;;;;;;5055300;28;20459;-82
2021/05/21 10:46:15;;;;;;;1.27;1.17;;;17.70;34.80;;;;;;5054244;28;20462;-80
2021/05/21 10:48:54;;;;;;;2.80;0.97;;;17.90;35.10;;;;;;5050557;28;20464;-79
2021/05/21 10:51:22;;;;;;;2.87;1.10;;;18.20;34.60;;;;;;5049044;28;20440;-81
2021/05/21 10:54:09;;;;;;;5.47;1.17;;;18.30;34.50;;;;;;5042525;28;20453;-81
2021/05/21 10:56:44;;;;;;;2.20;1.00;;;18.50;34.60;;;;;;5041102;28;20459;-81
2021/05/21 10:59:10;;;;;;;1.77;1.00;;;18.10;35.50;;;;;;5039454;28;20573;-80
2021/05/21 11:01:45;;;;;;;5.10;1.20;;;18.00;36.50;;;;;;5040293;28;20432;-81
2021/05/21 11:04:13;;;;;;;0.87;0.80;;;18.00;36.90;;;;;;5039898;28;20459;-81
2021/05/21 11:06:46;;;;;;;4.27;1.10;;;17.70;36.70;;;;;;5046291;28;20424;-81
2021/05/21 11:09:14;;;;;;;1.27;0.93;;;17.60;36.60;;;;;;5039660;28;20424;-82
2021/05/21 11:11:50;;;;;;;4.00;0.87;;;17.70;36.70;;;;;;5039303;28;20788;-81
2021/05/21 11:14:29;;;;;;;1.10;1.00;;;17.90;36.80;;;;;;5039941;28;20440;-81
2021/05/21 11:16:57;;;;;;;1.90;1.07;;;18.00;36.90;;;;;;5038897;28;20510;-80
2021/05/21 11:19:26;;;;;;;1.30;1.20;;;18.20;37.20;;;;;;5039251;28;20524;-81
2021/05/21 11:22:06;;;;;;;2.10;1.00;;;18.50;36.50;;;;;;5039730;28;20428;-80
2021/05/21 11:24:40;;;;;;;2.93;1.10;;;18.60;35.50;;;;;;5040398;28;20541;-81
2021/05/21 11:27:08;;;;;;;2.77;1.07;;;18.90;35.10;;;;;;5040985;28;20821;-80
2021/05/21 11:29:36;;;;;;;1.83;0.80;;;19.10;34.60;;;;;;5047856;28;20474;-78
2021/05/21 11:32:05;;;;;;;1.73;1.27;;;19.20;34.30;;;;;;5049609;28;20429;-80
2021/05/21 11:34:31;;;;;;;1.53;1.10;;;19.40;34.80;;;;;;5041423;28;20469;-80
2021/05/21 11:36:59;;;;;;;4.73;1.20;;;19.50;34.40;;;;;;5039475;28;20435;-81
2021/05/21 11:39:26;;;;;;;3.67;1.40;;;19.70;33.40;;;;;;5041061;28;20496;-80
2021/05/21 11:41:54;;;;;;;1.70;1.17;;;19.70;33.40;;;;;;5041963;28;20444;-79
2021/05/21 11:44:28;;;;;;;1.33;0.80;;;19.50;34.10;;;;;;5048497;28;20920;-81
2021/05/21 11:46:59;;;;;;;1.20;1.10;;;19.30;34.20;;;;;;5051651;28;20454;-79
2021/05/21 11:49:26;;;;;;;1.43;1.30;;;19.00;34.70;;;;;;5053709;28;20465;-81
2021/05/21 11:51:59;;;;;;;1.10;1.00;;;19.10;35.30;;;;;;5055881;28;20471;-80
2021/05/21 11:54:27;;;;;;;5.97;1.20;;;19.50;34.10;;;;;;5051116;28;20496;-77
2021/05/21 11:56:54;;;;;;;4.90;1.20;;;19.70;33.40;;;;;;5043613;28;20431;-81
2021/05/21 11:59:22;;;;;;;1.00;0.90;;;19.40;32.90;;;;;;5055535;28;20428;-81
2021/05/21 12:01:50;;;;;;;2.00;1.27;;;18.90;33.70;;;;;;5054733;28;20442;-81
2021/05/21 12:04:17;;;;;;;1.13;1.10;;;18.70;34.30;;;;;;5043540;28;20549;-82
2021/05/21 12:06:46;;;;;;;3.10;1.33;;;18.50;35.20;;;;;;5040370;28;20553;-81
2021/05/21 12:09:15;;;;;;;1.83;1.10;;;18.50;34.80;;;;;;5040902;28;20458;-82
2021/05/21 12:11:42;;;;;;;1.40;0.83;;;18.30;35.00;;;;;;5040124;28;20453;-80
2021/05/21 12:14:11;;;;;;;3.17;1.13;;;18.20;35.60;;;;;;5041195;28;20457;-80
2021/05/21 12:16:39;;;;;;;2.67;1.30;;;18.10;36.30;;;;;;5040698;28;20420;-80
2021/05/21 12:19:06;;;;;;;1.37;1.10;;;17.90;36.80;;;;;;5041108;28;20456;-81
2021/05/21 12:21:34;;;;;;;2.23;1.10;;;17.50;38.60;;;;;;5055308;28;20455;-82
2021/05/21 12:24:01;;;;;;;2.77;0.90;;;17.30;40.50;;;;;;5051360;28;20501;-83
2021/05/21 12:26:30;;;;;;;1.83;0.90;;;17.10;39.30;;;;;;5055532;28;20467;-83
2021/05/21 12:28:57;;;;;;;1.43;0.80;;;17.30;38.60;;;;;;5056157;28;20453;-81
2021/05/21 12:31:26;;;;;;;2.57;1.10;;;17.50;37.80;;;;;;5055808;28;20444;-82
2021/05/21 12:33:53;;;;;;;0.80;0.80;;;17.90;36.80;;;;;;5050906;28;20516;-82
2021/05/21 12:36:24;;;;;;;4.07;1.10;;;18.20;35.80;;;;;;5041794;28;20453;-81
2021/05/21 12:38:52;;;;;;;5.93;1.77;;;18.40;35.30;;;;;;5043260;28;20511;-81
2021/05/21 12:41:20;;;;;;;0.80;0.80;;;18.30;34.50;;;;;;5049148;28;20470;-82
2021/05/21 12:43:47;;;;;;;1.73;1.10;;;18.20;35.00;;;;;;5045647;28;20489;-81
2021/05/21 12:46:14;;;;;;;1.40;1.00;;;18.40;35.20;;;;;;5040914;28;21014;-79
2021/05/21 12:48:42;;;;;;;2.23;0.93;;;18.60;35.00;;;;;;5046610;28;20965;-80
2021/05/21 12:51:15;;;;;;;2.00;1.03;;;18.70;33.80;;;;;;5052003;28;20470;-80